sensor_id;sensor_type;location;lat;lon;timestamp;pressure;altitude;pressure_sealevel;temperature;humidity
72330;BME280;69154;52.076;5.110;2023-08-07T00:00:32;101362.58;;;12.98;40.02
72330;BME280;69154;52.076;5.110;2023-08-07T00:02:57;101360.79;;;12.22;38.75
72330;BME280;69154;52.076;5.110;2023-08-07T00:05:22;101367.00;;;12.99;39.01
72330;BME280;69154;52.076;5.110;2023-08-07T00:07:48;101361.14;;;12.24;39.79
72330;BME280;69154;52.076;5.110;2023-08-07T00:10:13;101364.02;;;12.65;38.77
72330;BME280;69154;52.076;5.110;2023-08-07T00:12:38;101364.88;;;12.23;40.35
72330;BME280;69154;52.076;5.110;2023-08-07T00:15:03;101361.51;;;11.16;40.76
72330;BME280;69154;52.076;5.110;2023-08-07T00:17:28;101359.09;;;12.13;39.81
72330;BME280;69154;52.076;5.110;2023-08-07T00:19:53;101362.72;;;11.34;39.91
72330;BME280;69154;52.076;5.110;2023-08-07T00:22:18;101361.49;;;11.71;40.35
72330;BME280;69154;52.076;5.110;2023-08-07T00:24:43;101370.62;;;11.76;40.12
72330;BME280;69154;52.076;5.110;2023-08-07T00:27:08;101367.89;;;10.92;41.37
72330;BME280;69154;52.076;5.110;2023-08-07T00:29:33;101363.79;;;11.64;41.04
72330;BME280;69154;52.076;5.110;2023-08-07T00:31:58;101364.72;;;11.33;40.78
72330;BME280;69154;52.076;5.110;2023-08-07T00:34:23;101368.69;;;12.52;38.81
72330;BME280;69154;52.076;5.110;2023-08-07T00:36:49;101371.91;;;11.64;40.09
72330;BME280;69154;52.076;5.110;2023-08-07T00:39:14;101372.00;;;11.86;39.51
72330;BME280;69154;52.076;5.110;2023-08-07T00:41:40;101381.32;;;11.32;39.52
72330;BME280;69154;52.076;5.110;2023-08-07T00:44:04;101384.64;;;11.85;39.60
72330;BME280;69154;52.076;5.110;2023-08-07T00:46:30;101385.49;;;11.30;42.09
72330;BME280;69154;52.076;5.110;2023-08-07T00:48:55;101384.93;;;9.97;42.78
72330;BME280;69154;52.076;5.110;2023-08-07T00:51:21;101386.95;;;11.56;41.71
72330;BME280;69154;52.076;5.110;2023-08-07T00:53:47;101381.38;;;10.35;44.28
72330;BME280;69154;52.076;5.110;2023-08-07T00:56:11;101379.98;;;10.61;42.75
72330;BME280;69154;52.076;5.110;2023-08-07T00:58:36;101386.82;;;10.40;43.69
72330;BME280;69154;52.076;5.110;2023-08-07T01:01:01;101383.09;;;9.94;43.96
72330;BME280;69154;52.076;5.110;2023-08-07T01:03:26;101381.28;;;11.52;41.92
72330;BME280;69154;52.076;5.110;2023-08-07T01:05:51;101372.91;;;11.53;40.43
72330;BME280;69154;52.076;5.110;2023-08-07T01:08:16;101373.26;;;12.65;38.90
72330;BME280;69154;52.076;5.110;2023-08-07T01:10:51;101368.31;;;13.14;38.40
72330;BME280;69154;52.076;5.110;2023-08-07T01:13:13;101371.03;;;11.89;38.13
72330;BME280;69154;52.076;5.110;2023-08-07T01:15:33;101375.26;;;13.41;37.17
72330;BME280;69154;52.076;5.110;2023-08-07T01:17:58;101375.19;;;12.04;37.72
72330;BME280;69154;52.076;5.110;2023-08-07T01:20:23;101374.51;;;13.48;36.35
72330;BME280;69154;52.076;5.110;2023-08-07T01:22:48;101377.39;;;13.23;35.81
72330;BME280;69154;52.076;5.110;2023-08-07T01:25:14;101381.50;;;14.02;35.49
72330;BME280;69154;52.076;5.110;2023-08-07T01:27:46;101381.78;;;13.28;36.08
72330;BME280;69154;52.076;5.110;2023-08-07T01:30:11;101389.21;;;12.56;37.58
72330;BME280;69154;52.076;5.110;2023-08-07T01:32:35;101394.06;;;12.93;38.83
72330;BME280;69154;52.076;5.110;2023-08-07T01:34:54;101403.82;;;12.27;40.57
72330;BME280;69154;52.076;5.110;2023-08-07T01:37:19;101401.66;;;10.01;46.12
72330;BME280;69154;52.076;5.110;2023-08-07T01:39:44;101394.92;;;11.07;44.77
72330;BME280;69154;52.076;5.110;2023-08-07T01:42:09;101395.10;;;11.28;44.24
72330;BME280;69154;52.076;5.110;2023-08-07T01:44:34;101391.18;;;11.99;42.23
72330;BME280;69154;52.076;5.110;2023-08-07T01:47:00;101388.75;;;11.57;41.25
72330;BME280;69154;52.076;5.110;2023-08-07T01:49:25;101393.18;;;12.05;40.36
72330;BME280;69154;52.076;5.110;2023-08-07T01:51:50;101395.37;;;11.30;40.60
72330;BME280;69154;52.076;5.110;2023-08-07T01:54:15;101393.11;;;11.99;39.85
72330;BME280;69154;52.076;5.110;2023-08-07T01:56:40;101393.53;;;12.90;39.61
72330;BME280;69154;52.076;5.110;2023-08-07T01:59:05;101394.74;;;12.01;39.08
72330;BME280;69154;52.076;5.110;2023-08-07T02:01:30;101390.76;;;11.98;39.77
72330;BME280;69154;52.076;5.110;2023-08-07T02:04:01;101398.02;;;13.17;37.82
72330;BME280;69154;52.076;5.110;2023-08-07T02:06:22;101392.48;;;11.86;40.90
72330;BME280;69154;52.076;5.110;2023-08-07T02:08:51;101394.17;;;11.69;39.53
72330;BME280;69154;52.076;5.110;2023-08-07T02:11:12;101398.43;;;11.95;39.70
72330;BME280;69154;52.076;5.110;2023-08-07T02:13:37;101400.93;;;13.00;38.88
72330;BME280;69154;52.076;5.110;2023-08-07T02:16:02;101399.28;;;13.14;37.75
72330;BME280;69154;52.076;5.110;2023-08-07T02:18:27;101402.79;;;13.32;37.20
72330;BME280;69154;52.076;5.110;2023-08-07T02:20:52;101396.21;;;12.83;37.12
72330;BME280;69154;52.076;5.110;2023-08-07T02:23:18;101397.04;;;12.43;38.36
72330;BME280;69154;52.076;5.110;2023-08-07T02:25:43;101393.45;;;12.43;38.97
72330;BME280;69154;52.076;5.110;2023-08-07T02:28:08;101396.26;;;12.28;38.81
72330;BME280;69154;52.076;5.110;2023-08-07T02:30:33;101401.70;;;12.98;37.82
72330;BME280;69154;52.076;5.110;2023-08-07T02:32:58;101396.61;;;12.27;38.22
72330;BME280;69154;52.076;5.110;2023-08-07T02:35:23;101397.76;;;12.89;36.91
72330;BME280;69154;52.076;5.110;2023-08-07T02:37:49;101392.60;;;12.74;37.74
72330;BME280;69154;52.076;5.110;2023-08-07T02:40:14;101393.43;;;12.86;37.77
72330;BME280;69154;52.076;5.110;2023-08-07T02:42:39;101395.12;;;13.44;37.41
72330;BME280;69154;52.076;5.110;2023-08-07T02:45:05;101394.68;;;11.99;37.96
72330;BME280;69154;52.076;5.110;2023-08-07T02:47:29;101403.05;;;13.15;37.94
72330;BME280;69154;52.076;5.110;2023-08-07T02:49:54;101401.14;;;12.84;37.16
72330;BME280;69154;52.076;5.110;2023-08-07T02:52:19;101400.34;;;13.05;38.61
72330;BME280;69154;52.076;5.110;2023-08-07T02:54:45;101398.34;;;12.20;38.45
72330;BME280;69154;52.076;5.110;2023-08-07T02:57:10;101398.96;;;12.47;37.91
72330;BME280;69154;52.076;5.110;2023-08-07T02:59:35;101395.41;;;13.90;37.06
72330;BME280;69154;52.076;5.110;2023-08-07T03:02:00;101398.66;;;12.49;37.34
72330;BME280;69154;52.076;5.110;2023-08-07T03:04:25;101396.05;;;13.99;36.59
72330;BME280;69154;52.076;5.110;2023-08-07T03:06:51;101391.15;;;13.23;36.28
72330;BME280;69154;52.076;5.110;2023-08-07T03:09:16;101402.49;;;13.51;36.02
72330;BME280;69154;52.076;5.110;2023-08-07T03:11:41;101405.15;;;13.82;36.72
72330;BME280;69154;52.076;5.110;2023-08-07T03:14:06;101410.85;;;12.63;37.04
72330;BME280;69154;52.076;5.110;2023-08-07T03:16:31;101402.94;;;13.06;36.94
72330;BME280;69154;52.076;5.110;2023-08-07T03:18:57;101405.89;;;12.33;37.61
72330;BME280;69154;52.076;5.110;2023-08-07T03:21:22;101404.77;;;12.27;38.99
72330;BME280;69154;52.076;5.110;2023-08-07T03:23:47;101407.99;;;12.71;38.58
72330;BME280;69154;52.076;5.110;2023-08-07T03:26:17;101410.95;;;12.36;40.02
72330;BME280;69154;52.076;5.110;2023-08-07T03:28:39;101403.34;;;12.11;42.05
72330;BME280;69154;52.076;5.110;2023-08-07T03:31:03;101408.50;;;11.26;42.90
72330;BME280;69154;52.076;5.110;2023-08-07T03:33:28;101401.51;;;11.98;42.69
72330;BME280;69154;52.076;5.110;2023-08-07T03:35:53;101398.17;;;12.39;41.20
72330;BME280;69154;52.076;5.110;2023-08-07T03:38:18;101401.49;;;11.87;42.38
72330;BME280;69154;52.076;5.110;2023-08-07T03:40:43;101409.84;;;12.37;41.90
72330;BME280;69154;52.076;5.110;2023-08-07T03:43:08;101407.25;;;12.09;42.94
72330;BME280;69154;52.076;5.110;2023-08-07T03:45:34;101407.39;;;12.79;42.20
72330;BME280;69154;52.076;5.110;2023-08-07T03:47:59;101407.30;;;11.67;42.17
72330;BME280;69154;52.076;5.110;2023-08-07T03:50:24;101411.97;;;12.86;40.61
72330;BME280;69154;52.076;5.110;2023-08-07T03:52:49;101409.21;;;11.84;41.90
72330;BME280;69154;52.076;5.110;2023-08-07T03:55:15;101403.31;;;12.36;41.13
72330;BME280;69154;52.076;5.110;2023-08-07T03:57:40;101407.12;;;12.35;41.62
72330;BME280;69154;52.076;5.110;2023-08-07T04:00:05;101413.26;;;12.05;40.98
72330;BME280;69154;52.076;5.110;2023-08-07T04:02:29;101410.86;;;13.68;39.83
72330;BME280;69154;52.076;5.110;2023-08-07T04:04:54;101413.94;;;13.48;40.12
72330;BME280;69154;52.076;5.110;2023-08-07T04:07:19;101411.44;;;13.27;40.64
72330;BME280;69154;52.076;5.110;2023-08-07T04:09:45;101400.75;;;11.60;43.44
72330;BME280;69154;52.076;5.110;2023-08-07T04:12:10;101405.66;;;12.23;43.68
72330;BME280;69154;52.076;5.110;2023-08-07T04:14:35;101407.38;;;11.80;44.40
72330;BME280;69154;52.076;5.110;2023-08-07T04:17:01;101414.18;;;11.00;44.57
72330;BME280;69154;52.076;5.110;2023-08-07T04:19:27;101421.42;;;11.64;44.44
72330;BME280;69154;52.076;5.110;2023-08-07T04:21:50;101415.44;;;10.56;45.56
72330;BME280;69154;52.076;5.110;2023-08-07T04:24:15;101418.09;;;12.09;43.95
72330;BME280;69154;52.076;5.110;2023-08-07T04:26:40;101419.42;;;12.53;43.55
72330;BME280;69154;52.076;5.110;2023-08-07T04:29:06;101412.69;;;12.11;43.52
72330;BME280;69154;52.076;5.110;2023-08-07T04:31:31;101410.66;;;13.19;41.85
72330;BME280;69154;52.076;5.110;2023-08-07T04:33:57;101411.14;;;12.58;41.50
72330;BME280;69154;52.076;5.110;2023-08-07T04:36:22;101420.17;;;12.83;41.78
72330;BME280;69154;52.076;5.110;2023-08-07T04:38:49;101418.99;;;11.43;43.40
72330;BME280;69154;52.076;5.110;2023-08-07T04:41:13;101420.44;;;12.59;42.59
72330;BME280;69154;52.076;5.110;2023-08-07T04:43:39;101425.69;;;13.63;41.02
72330;BME280;69154;52.076;5.110;2023-08-07T04:46:03;101428.46;;;11.47;43.87
72330;BME280;69154;52.076;5.110;2023-08-07T04:48:29;101434.64;;;11.67;43.68
72330;BME280;69154;52.076;5.110;2023-08-07T04:50:54;101428.49;;;11.22;44.43
72330;BME280;69154;52.076;5.110;2023-08-07T04:53:19;101431.34;;;12.45;43.48
72330;BME280;69154;52.076;5.110;2023-08-07T04:55:44;101437.34;;;10.94;46.02
72330;BME280;69154;52.076;5.110;2023-08-07T04:58:09;101437.39;;;11.29;45.62
72330;BME280;69154;52.076;5.110;2023-08-07T05:00:35;101440.31;;;12.36;42.94
72330;BME280;69154;52.076;5.110;2023-08-07T05:02:59;101435.35;;;12.12;41.92
72330;BME280;69154;52.076;5.110;2023-08-07T05:05:25;101437.17;;;12.16;43.39
72330;BME280;69154;52.076;5.110;2023-08-07T05:07:49;101436.78;;;11.27;43.97
72330;BME280;69154;52.076;5.110;2023-08-07T05:10:15;101441.44;;;11.93;42.99
72330;BME280;69154;52.076;5.110;2023-08-07T05:12:40;101439.67;;;12.55;42.51
72330;BME280;69154;52.076;5.110;2023-08-07T05:15:06;101433.84;;;12.00;41.84
72330;BME280;69154;52.076;5.110;2023-08-07T05:17:31;101443.43;;;12.63;41.89
72330;BME280;69154;52.076;5.110;2023-08-07T05:19:55;101447.90;;;13.14;40.19
72330;BME280;69154;52.076;5.110;2023-08-07T05:22:21;101456.31;;;13.53;40.48
72330;BME280;69154;52.076;5.110;2023-08-07T05:24:46;101458.12;;;13.10;41.32
72330;BME280;69154;52.076;5.110;2023-08-07T05:27:11;101462.16;;;13.93;39.74
72330;BME280;69154;52.076;5.110;2023-08-07T05:29:36;101465.32;;;13.68;39.21
72330;BME280;69154;52.076;5.110;2023-08-07T05:32:01;101460.58;;;11.98;40.81
72330;BME280;69154;52.076;5.110;2023-08-07T05:34:27;101468.11;;;13.38;40.73
72330;BME280;69154;52.076;5.110;2023-08-07T05:36:51;101469.16;;;12.76;40.43
72330;BME280;69154;52.076;5.110;2023-08-07T05:39:17;101470.34;;;12.12;41.72
72330;BME280;69154;52.076;5.110;2023-08-07T05:41:42;101464.93;;;12.37;42.15
72330;BME280;69154;52.076;5.110;2023-08-07T05:44:07;101469.56;;;11.91;42.20
72330;BME280;69154;52.076;5.110;2023-08-07T05:46:32;101470.28;;;13.36;40.36
72330;BME280;69154;52.076;5.110;2023-08-07T05:48:57;101476.01;;;13.03;39.66
72330;BME280;69154;52.076;5.110;2023-08-07T05:51:22;101479.43;;;13.82;39.05
72330;BME280;69154;52.076;5.110;2023-08-07T05:53:48;101483.56;;;13.34;38.78
72330;BME280;69154;52.076;5.110;2023-08-07T05:56:13;101490.21;;;13.19;38.65
72330;BME280;69154;52.076;5.110;2023-08-07T05:58:39;101490.67;;;14.50;37.24
72330;BME280;69154;52.076;5.110;2023-08-07T06:01:04;101494.78;;;13.84;37.07
72330;BME280;69154;52.076;5.110;2023-08-07T06:03:29;101495.79;;;14.30;37.17
72330;BME280;69154;52.076;5.110;2023-08-07T06:05:54;101507.95;;;13.16;38.17
72330;BME280;69154;52.076;5.110;2023-08-07T06:08:19;101508.94;;;12.94;39.73
72330;BME280;69154;52.076;5.110;2023-08-07T06:10:44;101507.60;;;12.59;40.54
72330;BME280;69154;52.076;5.110;2023-08-07T06:13:09;101513.35;;;12.07;41.00
72330;BME280;69154;52.076;5.110;2023-08-07T06:15:34;101515.50;;;13.43;39.58
72330;BME280;69154;52.076;5.110;2023-08-07T06:17:59;101516.25;;;13.02;39.16
72330;BME280;69154;52.076;5.110;2023-08-07T06:20:24;101518.59;;;13.32;38.08
72330;BME280;69154;52.076;5.110;2023-08-07T06:22:50;101516.23;;;13.68;37.81
72330;BME280;69154;52.076;5.110;2023-08-07T06:25:15;101516.52;;;13.22;38.48
72330;BME280;69154;52.076;5.110;2023-08-07T06:27:40;101518.20;;;14.24;38.22
72330;BME280;69154;52.076;5.110;2023-08-07T06:30:05;101518.17;;;14.38;37.13
72330;BME280;69154;52.076;5.110;2023-08-07T06:32:29;101524.21;;;15.01;36.57
72330;BME280;69154;52.076;5.110;2023-08-07T06:34:54;101527.94;;;14.74;37.02
72330;BME280;69154;52.076;5.110;2023-08-07T06:37:20;101533.42;;;15.31;36.98
72330;BME280;69154;52.076;5.110;2023-08-07T06:39:44;101531.96;;;15.73;36.12
72330;BME280;69154;52.076;5.110;2023-08-07T06:42:09;101534.41;;;14.98;36.43
72330;BME280;69154;52.076;5.110;2023-08-07T06:44:35;101528.45;;;16.15;36.00
72330;BME280;69154;52.076;5.110;2023-08-07T06:47:00;101529.89;;;16.14;34.76
72330;BME280;69154;52.076;5.110;2023-08-07T06:49:26;101536.74;;;15.52;36.18
72330;BME280;69154;52.076;5.110;2023-08-07T06:51:51;101533.40;;;13.78;38.26
72330;BME280;69154;52.076;5.110;2023-08-07T06:54:16;101530.75;;;13.99;39.42
72330;BME280;69154;52.076;5.110;2023-08-07T06:56:42;101534.05;;;15.11;38.23
72330;BME280;69154;52.076;5.110;2023-08-07T06:59:06;101544.66;;;13.65;37.94
72330;BME280;69154;52.076;5.110;2023-08-07T07:01:31;101548.58;;;14.63;37.73
72330;BME280;69154;52.076;5.110;2023-08-07T07:03:57;101547.23;;;15.39;35.69
72330;BME280;69154;52.076;5.110;2023-08-07T07:06:21;101553.87;;;13.09;37.30
72330;BME280;69154;52.076;5.110;2023-08-07T07:08:47;101555.42;;;12.84;39.45
72330;BME280;69154;52.076;5.110;2023-08-07T07:11:12;101555.19;;;13.22;38.22
72330;BME280;69154;52.076;5.110;2023-08-07T07:13:38;101560.48;;;14.78;37.59
72330;BME280;69154;52.076;5.110;2023-08-07T07:16:02;101561.74;;;14.10;36.52
72330;BME280;69154;52.076;5.110;2023-08-07T07:18:28;101561.71;;;12.86;38.32
72330;BME280;69154;52.076;5.110;2023-08-07T07:20:57;101559.25;;;13.23;38.06
72330;BME280;69154;52.076;5.110;2023-08-07T07:23:18;101564.32;;;14.15;37.45
72330;BME280;69154;52.076;5.110;2023-08-07T07:25:43;101572.80;;;13.21;39.76
72330;BME280;69154;52.076;5.110;2023-08-07T07:28:09;101576.42;;;13.98;38.47
72330;BME280;69154;52.076;5.110;2023-08-07T07:30:34;101573.47;;;14.35;37.33
72330;BME280;69154;52.076;5.110;2023-08-07T07:32:59;101578.78;;;13.91;37.64
72330;BME280;69154;52.076;5.110;2023-08-07T07:35:24;101580.74;;;13.25;38.57
72330;BME280;69154;52.076;5.110;2023-08-07T07:37:49;101580.69;;;12.65;40.27
72330;BME280;69154;52.076;5.110;2023-08-07T07:40:15;101586.72;;;12.17;39.61
72330;BME280;69154;52.076;5.110;2023-08-07T07:42:39;101584.74;;;12.21;40.23
72330;BME280;69154;52.076;5.110;2023-08-07T07:45:06;101582.96;;;12.16;39.64
72330;BME280;69154;52.076;5.110;2023-08-07T07:47:29;101585.23;;;12.02;39.92
72330;BME280;69154;52.076;5.110;2023-08-07T07:50:05;101586.33;;;11.01;39.83
72330;BME280;69154;52.076;5.110;2023-08-07T07:52:21;101607.18;;;12.03;39.67
72330;BME280;69154;52.076;5.110;2023-08-07T07:54:46;101596.82;;;11.60;39.01
72330;BME280;69154;52.076;5.110;2023-08-07T07:57:11;101601.71;;;12.11;39.19
72330;BME280;69154;52.076;5.110;2023-08-07T07:59:36;101602.48;;;11.88;39.26
72330;BME280;69154;52.076;5.110;2023-08-07T08:02:01;101611.19;;;10.62;39.17
72330;BME280;69154;52.076;5.110;2023-08-07T08:04:26;101608.34;;;10.90;39.82
72330;BME280;69154;52.076;5.110;2023-08-07T08:06:51;101607.40;;;11.60;38.19
72330;BME280;69154;52.076;5.110;2023-08-07T08:09:16;101623.52;;;11.63;38.37
72330;BME280;69154;52.076;5.110;2023-08-07T08:11:41;101624.01;;;11.48;39.83
72330;BME280;69154;52.076;5.110;2023-08-07T08:14:06;101619.07;;;10.93;38.94
72330;BME280;69154;52.076;5.110;2023-08-07T08:16:31;101616.64;;;13.65;36.14
72330;BME280;69154;52.076;5.110;2023-08-07T08:18:56;101625.28;;;12.79;35.78
72330;BME280;69154;52.076;5.110;2023-08-07T08:21:21;101633.54;;;13.12;36.11
72330;BME280;69154;52.076;5.110;2023-08-07T08:23:47;101633.75;;;12.39;35.79
72330;BME280;69154;52.076;5.110;2023-08-07T08:26:12;101637.96;;;12.53;36.78
72330;BME280;69154;52.076;5.110;2023-08-07T08:28:38;101639.22;;;12.29;36.47
72330;BME280;69154;52.076;5.110;2023-08-07T08:31:02;101637.14;;;12.81;34.53
72330;BME280;69154;52.076;5.110;2023-08-07T08:33:27;101634.38;;;14.33;33.66
72330;BME280;69154;52.076;5.110;2023-08-07T08:35:53;101639.43;;;12.94;34.29
72330;BME280;69154;52.076;5.110;2023-08-07T08:38:18;101640.98;;;14.51;33.40
72330;BME280;69154;52.076;5.110;2023-08-07T08:40:44;101636.61;;;13.55;33.93
72330;BME280;69154;52.076;5.110;2023-08-07T08:43:09;101628.00;;;12.37;35.36
72330;BME280;69154;52.076;5.110;2023-08-07T08:45:35;101629.91;;;14.70;34.00
72330;BME280;69154;52.076;5.110;2023-08-07T08:48:02;101642.26;;;13.92;33.88
72330;BME280;69154;52.076;5.110;2023-08-07T08:50:26;101655.90;;;14.31;34.56
72330;BME280;69154;52.076;5.110;2023-08-07T08:52:53;101647.22;;;12.95;35.67
72330;BME280;69154;52.076;5.110;2023-08-07T08:55:20;101656.00;;;14.30;34.45
72330;BME280;69154;52.076;5.110;2023-08-07T08:57:44;101656.69;;;14.70;34.48
72330;BME280;69154;52.076;5.110;2023-08-07T09:00:11;101660.91;;;14.36;34.56
72330;BME280;69154;52.076;5.110;2023-08-07T09:02:36;101661.86;;;15.60;32.62
72330;BME280;69154;52.076;5.110;2023-08-07T09:05:02;101667.55;;;15.51;31.96
72330;BME280;69154;52.076;5.110;2023-08-07T09:07:27;101674.13;;;15.04;33.09
72330;BME280;69154;52.076;5.110;2023-08-07T09:09:53;101684.81;;;13.08;36.53
72330;BME280;69154;52.076;5.110;2023-08-07T09:12:20;101679.98;;;12.10;42.36
72330;BME280;69154;52.076;5.110;2023-08-07T09:14:44;101683.98;;;11.30;43.34
72330;BME280;69154;52.076;5.110;2023-08-07T09:17:09;101690.43;;;11.60;42.36
72330;BME280;69154;52.076;5.110;2023-08-07T09:19:34;101696.36;;;12.57;40.39
72330;BME280;69154;52.076;5.110;2023-08-07T09:21:59;101702.56;;;10.42;41.46
72330;BME280;69154;52.076;5.110;2023-08-07T09:24:24;101703.33;;;10.98;42.74
72330;BME280;69154;52.076;5.110;2023-08-07T09:26:51;101691.19;;;12.76;38.83
72330;BME280;69154;52.076;5.110;2023-08-07T09:29:14;101692.57;;;15.22;36.62
72330;BME280;69154;52.076;5.110;2023-08-07T09:31:43;101692.57;;;16.84;32.87
72330;BME280;69154;52.076;5.110;2023-08-07T09:34:05;101696.17;;;16.31;32.72
72330;BME280;69154;52.076;5.110;2023-08-07T09:36:31;101695.42;;;16.51;32.06
72330;BME280;69154;52.076;5.110;2023-08-07T09:39:00;101697.55;;;15.64;32.09
72330;BME280;69154;52.076;5.110;2023-08-07T09:41:23;101697.46;;;16.32;31.79
72330;BME280;69154;52.076;5.110;2023-08-07T09:43:48;101688.53;;;17.05;30.01
72330;BME280;69154;52.076;5.110;2023-08-07T09:46:14;101693.12;;;17.62;30.14
72330;BME280;69154;52.076;5.110;2023-08-07T09:48:41;101682.72;;;18.08;29.90
72330;BME280;69154;52.076;5.110;2023-08-07T09:51:06;101685.21;;;18.51;28.71
72330;BME280;69154;52.076;5.110;2023-08-07T09:53:31;101693.56;;;17.60;27.72
72330;BME280;69154;52.076;5.110;2023-08-07T09:55:58;101694.71;;;15.27;29.78
72330;BME280;69154;52.076;5.110;2023-08-07T09:58:24;101696.65;;;16.60;29.61
72330;BME280;69154;52.076;5.110;2023-08-07T10:00:49;101698.22;;;16.38;29.69
72330;BME280;69154;52.076;5.110;2023-08-07T10:03:15;101702.35;;;16.28;30.41
72330;BME280;69154;52.076;5.110;2023-08-07T10:05:41;101706.44;;;14.93;31.80
72330;BME280;69154;52.076;5.110;2023-08-07T10:08:07;101706.82;;;13.72;33.18
72330;BME280;69154;52.076;5.110;2023-08-07T10:10:33;101716.05;;;15.53;32.13
72330;BME280;69154;52.076;5.110;2023-08-07T10:13:00;101719.51;;;14.03;32.98
72330;BME280;69154;52.076;5.110;2023-08-07T10:15:24;101724.21;;;14.62;33.65
72330;BME280;69154;52.076;5.110;2023-08-07T10:17:50;101730.56;;;12.46;36.05
72330;BME280;69154;52.076;5.110;2023-08-07T10:20:16;101726.52;;;13.71;36.36
72330;BME280;69154;52.076;5.110;2023-08-07T10:22:42;101730.90;;;13.65;36.20
72330;BME280;69154;52.076;5.110;2023-08-07T10:25:08;101728.98;;;14.67;34.46
72330;BME280;69154;52.076;5.110;2023-08-07T10:27:38;101731.64;;;16.15;31.45
72330;BME280;69154;52.076;5.110;2023-08-07T10:30:01;101727.95;;;15.58;31.84
72330;BME280;69154;52.076;5.110;2023-08-07T10:32:25;101730.30;;;17.81;31.01
72330;BME280;69154;52.076;5.110;2023-08-07T10:34:50;101722.28;;;17.76;29.17
72330;BME280;69154;52.076;5.110;2023-08-07T10:37:32;101732.07;;;17.83;29.24
72330;BME280;69154;52.076;5.110;2023-08-07T10:40:01;101740.01;;;18.90;28.52
72330;BME280;69154;52.076;5.110;2023-08-07T10:42:08;101737.76;;;19.48;27.47
72330;BME280;69154;52.076;5.110;2023-08-07T10:44:47;101742.66;;;18.03;29.33
72330;BME280;69154;52.076;5.110;2023-08-07T10:47:01;101736.13;;;18.07;27.53
72330;BME280;69154;52.076;5.110;2023-08-07T10:49:41;101740.91;;;19.60;26.76
72330;BME280;69154;52.076;5.110;2023-08-07T10:51:52;101741.00;;;20.40;25.58
72330;BME280;69154;52.076;5.110;2023-08-07T10:54:19;101744.97;;;20.61;25.23
72330;BME280;69154;52.076;5.110;2023-08-07T10:56:42;101736.26;;;20.07;25.69
72330;BME280;69154;52.076;5.110;2023-08-07T10:59:08;101738.99;;;21.42;23.90
72330;BME280;69154;52.076;5.110;2023-08-07T11:01:40;101743.95;;;21.82;23.64
72330;BME280;69154;52.076;5.110;2023-08-07T11:04:07;101736.00;;;19.92;24.64
72330;BME280;69154;52.076;5.110;2023-08-07T11:06:28;101744.74;;;18.06;26.60
72330;BME280;69154;52.076;5.110;2023-08-07T11:08:51;101740.48;;;17.37;26.97
72330;BME280;69154;52.076;5.110;2023-08-07T11:11:16;101749.47;;;18.44;27.21
72330;BME280;69154;52.076;5.110;2023-08-07T11:13:42;101752.25;;;20.18;26.30
72330;BME280;69154;52.076;5.110;2023-08-07T11:16:08;101744.78;;;20.10;24.18
72330;BME280;69154;52.076;5.110;2023-08-07T11:18:34;101748.61;;;17.71;27.13
72330;BME280;69154;52.076;5.110;2023-08-07T11:20:59;101749.08;;;18.32;25.89
72330;BME280;69154;52.076;5.110;2023-08-07T11:23:25;101749.67;;;20.10;26.74
72330;BME280;69154;52.076;5.110;2023-08-07T11:25:51;101742.27;;;17.92;26.70
72330;BME280;69154;52.076;5.110;2023-08-07T11:28:18;101744.33;;;16.49;28.29
72330;BME280;69154;52.076;5.110;2023-08-07T11:30:43;101738.02;;;17.60;28.60
72330;BME280;69154;52.076;5.110;2023-08-07T11:33:08;101738.89;;;17.60;27.80
72330;BME280;69154;52.076;5.110;2023-08-07T11:35:35;101744.84;;;17.35;28.29
72330;BME280;69154;52.076;5.110;2023-08-07T11:38:00;101744.87;;;16.15;28.47
72330;BME280;69154;52.076;5.110;2023-08-07T11:40:25;101755.11;;;16.08;29.29
72330;BME280;69154;52.076;5.110;2023-08-07T11:42:51;101754.72;;;16.74;29.05
72330;BME280;69154;52.076;5.110;2023-08-07T11:45:17;101751.20;;;20.50;25.66
72330;BME280;69154;52.076;5.110;2023-08-07T11:47:42;101750.23;;;21.89;24.21
72330;BME280;69154;52.076;5.110;2023-08-07T11:50:09;101740.56;;;19.34;24.85
72330;BME280;69154;52.076;5.110;2023-08-07T11:52:33;101747.56;;;22.43;23.62
72330;BME280;69154;52.076;5.110;2023-08-07T11:55:02;101750.33;;;20.54;21.75
72330;BME280;69154;52.076;5.110;2023-08-07T11:57:25;101754.68;;;19.95;23.44
72330;BME280;69154;52.076;5.110;2023-08-07T11:59:50;101748.29;;;19.43;23.21
72330;BME280;69154;52.076;5.110;2023-08-07T12:02:16;101751.11;;;23.71;21.72
72330;BME280;69154;52.076;5.110;2023-08-07T12:04:42;101748.42;;;26.15;19.36
72330;BME280;69154;52.076;5.110;2023-08-07T12:07:08;101746.34;;;23.95;18.80
72330;BME280;69154;52.076;5.110;2023-08-07T12:09:33;101754.16;;;26.44;18.42
72330;BME280;69154;52.076;5.110;2023-08-07T12:11:58;101753.36;;;24.71;18.95
72330;BME280;69154;52.076;5.110;2023-08-07T12:14:28;101748.19;;;22.47;20.11
72330;BME280;69154;52.076;5.110;2023-08-07T12:16:49;101758.37;;;27.93;18.79
72330;BME280;69154;52.076;5.110;2023-08-07T12:19:15;101748.99;;;24.13;19.87
72330;BME280;69154;52.076;5.110;2023-08-07T12:21:40;101745.74;;;25.10;18.34
72330;BME280;69154;52.076;5.110;2023-08-07T12:24:07;101743.66;;;28.95;16.95
72330;BME280;69154;52.076;5.110;2023-08-07T12:26:31;101752.78;;;26.52;15.74
72330;BME280;69154;52.076;5.110;2023-08-07T12:28:57;101743.08;;;27.01;15.95
72330;BME280;69154;52.076;5.110;2023-08-07T12:31:22;101753.01;;;25.82;16.99
72330;BME280;69154;52.076;5.110;2023-08-07T12:33:48;101745.45;;;29.33;16.28
72330;BME280;69154;52.076;5.110;2023-08-07T12:36:13;101751.26;;;27.52;16.40
72330;BME280;69154;52.076;5.110;2023-08-07T12:38:40;101741.51;;;25.47;17.69